createdAt,value
2022-12-16T00:00:39.910Z,6.10
2022-12-16T00:03:11.542Z,6.10
2022-12-16T00:05:44.655Z,6.10
2022-12-16T00:08:17.652Z,6.00
2022-12-16T00:10:55.187Z,5.80
2022-12-16T00:13:27.103Z,5.50
2022-12-16T00:15:58.789Z,5.20
2022-12-16T00:18:30.458Z,5.00
2022-12-16T00:21:02.500Z,4.70
2022-12-16T00:23:36.453Z,4.50
2022-12-16T00:26:08.662Z,4.20
2022-12-16T00:28:40.455Z,4.00
2022-12-16T00:31:12.151Z,3.90
2022-12-16T00:33:43.874Z,3.70
2022-12-16T00:36:15.452Z,3.50
2022-12-16T00:38:48.407Z,3.30
2022-12-16T00:41:20.022Z,3.20
2022-12-16T00:43:51.673Z,3.10
2022-12-16T00:46:23.432Z,3.00
2022-12-16T00:48:55.365Z,2.90
2022-12-16T00:51:26.984Z,2.80
2022-12-16T00:53:59.893Z,2.70
2022-12-16T00:56:31.496Z,2.70
2022-12-16T00:59:03.171Z,2.60
2022-12-16T01:01:34.876Z,2.60
2022-12-16T01:04:06.532Z,2.50
2022-12-16T01:06:38.121Z,2.50
2022-12-16T01:09:11.032Z,2.50
2022-12-16T01:11:42.653Z,2.40
2022-12-16T01:14:14.246Z,2.40
2022-12-16T01:16:45.909Z,2.40
2022-12-16T01:19:17.555Z,2.30
2022-12-16T01:21:49.152Z,2.30
2022-12-16T01:24:22.133Z,2.30
2022-12-16T01:26:53.725Z,2.30
2022-12-16T01:29:25.547Z,2.20
2022-12-16T01:31:57.276Z,2.20
2022-12-16T01:34:28.941Z,2.20
2022-12-16T01:37:00.539Z,2.10
2022-12-16T01:39:33.473Z,2.10
2022-12-16T01:42:05.418Z,2.10
2022-12-16T01:44:37.011Z,2.10
2022-12-16T01:47:13.312Z,2.00
2022-12-16T01:49:48.115Z,2.00
2022-12-16T01:52:21.297Z,1.90
2022-12-16T01:54:56.252Z,1.90
2022-12-16T01:57:30.027Z,1.90
2022-12-16T02:00:02.431Z,1.80
2022-12-16T02:02:34.743Z,1.80
2022-12-16T02:05:21.609Z,1.80
2022-12-16T02:07:59.343Z,1.70
2022-12-16T02:10:39.628Z,1.80
2022-12-16T02:13:16.637Z,1.70
2022-12-16T02:15:52.091Z,1.70
2022-12-16T02:18:29.317Z,1.70
2022-12-16T02:21:10.074Z,1.70
2022-12-16T02:24:05.389Z,1.70
2022-12-16T02:26:51.926Z,1.70
2022-12-16T02:29:36.883Z,1.60
2022-12-16T02:32:14.727Z,1.70
2022-12-16T02:34:50.603Z,1.60
2022-12-16T02:37:27.292Z,1.60
2022-12-16T02:39:59.657Z,1.60
2022-12-16T02:42:32.162Z,1.60
2022-12-16T02:45:06.171Z,1.60
2022-12-16T02:47:39.158Z,1.50
2022-12-16T02:50:16.086Z,1.50
2022-12-16T02:52:47.901Z,1.50
2022-12-16T02:55:19.899Z,1.40
2022-12-16T02:57:59.674Z,1.40
2022-12-16T03:00:34.625Z,1.40
2022-12-16T03:03:08.858Z,1.40
2022-12-16T03:05:42.643Z,1.40
2022-12-16T03:08:15.326Z,1.50
2022-12-16T03:10:51.396Z,1.50
2022-12-16T03:13:23.399Z,1.50
2022-12-16T03:15:57.862Z,1.50
2022-12-16T03:18:31.002Z,1.50
2022-12-16T03:21:03.985Z,1.60
2022-12-16T03:23:37.807Z,1.60
2022-12-16T03:26:12.552Z,1.60
2022-12-16T03:28:45.619Z,1.60
2022-12-16T03:31:20.802Z,1.60
2022-12-16T03:33:57.153Z,1.60
2022-12-16T03:36:30.874Z,1.60
2022-12-16T03:39:03.172Z,1.60
2022-12-16T03:41:35.371Z,1.70
2022-12-16T03:44:07.709Z,1.70
2022-12-16T03:46:39.408Z,1.70
2022-12-16T03:49:12.355Z,1.70
2022-12-16T03:51:43.959Z,1.70
2022-12-16T03:54:15.631Z,1.70
2022-12-16T03:56:47.589Z,1.70
2022-12-16T03:59:19.396Z,1.70
2022-12-16T04:01:51.081Z,1.70
2022-12-16T04:04:24.737Z,1.70
2022-12-16T04:07:15.159Z,1.70
2022-12-16T04:09:47.079Z,1.70
2022-12-16T04:12:37.632Z,1.70
2022-12-16T04:15:28.065Z,1.70
2022-12-16T04:18:18.063Z,1.70
2022-12-16T04:21:11.058Z,1.70
2022-12-16T04:24:04.972Z,1.70
2022-12-16T04:26:56.652Z,1.70
2022-12-16T04:29:28.225Z,1.70
2022-12-16T04:32:00.127Z,1.70
2022-12-16T04:34:31.715Z,1.70
2022-12-16T04:37:23.336Z,1.70
2022-12-16T04:40:13.576Z,1.80
2022-12-16T04:43:03.516Z,1.70
2022-12-16T04:45:53.834Z,1.70
2022-12-16T04:49:01.040Z,1.70
2022-12-16T04:51:51.447Z,1.70
2022-12-16T04:54:43.105Z,1.60
2022-12-16T04:57:33.234Z,1.50
2022-12-16T05:00:24.199Z,1.50
2022-12-16T05:03:15.353Z,1.40
2022-12-16T05:06:05.658Z,1.40
2022-12-16T05:08:55.677Z,1.40
2022-12-16T05:11:46.914Z,1.40
2022-12-16T05:14:37.251Z,1.50
2022-12-16T05:17:27.835Z,1.50
2022-12-16T05:20:18.113Z,1.50
2022-12-16T05:23:08.042Z,1.50
2022-12-16T05:25:58.542Z,1.50
2022-12-16T05:28:50.013Z,1.50
2022-12-16T05:31:40.246Z,1.40
2022-12-16T05:34:30.735Z,1.40
2022-12-16T05:37:20.981Z,1.40
2022-12-16T05:40:11.408Z,1.30
2022-12-16T05:43:03.606Z,1.30
2022-12-16T05:45:55.112Z,1.30
2022-12-16T05:48:47.878Z,1.30
2022-12-16T05:51:38.149Z,1.30
2022-12-16T05:54:28.504Z,1.30
2022-12-16T05:57:18.402Z,1.20
2022-12-16T06:00:08.652Z,1.10
2022-12-16T06:03:00.135Z,1.10
2022-12-16T06:05:50.260Z,1.00
2022-12-16T06:08:40.270Z,1.00
2022-12-16T06:11:30.344Z,1.00
2022-12-16T06:14:20.689Z,1.00
2022-12-16T06:17:10.740Z,1.00
2022-12-16T06:20:02.353Z,0.90
2022-12-16T06:22:52.473Z,0.90
2022-12-16T06:25:42.504Z,0.80
2022-12-16T06:28:32.551Z,0.70
2022-12-16T06:31:22.524Z,0.80
2022-12-16T06:34:12.919Z,0.50
2022-12-16T06:37:04.759Z,0.40
2022-12-16T06:39:54.739Z,0.40
2022-12-16T06:42:45.121Z,0.30
2022-12-16T06:45:35.424Z,0.20
2022-12-16T06:48:26.172Z,0.20
2022-12-16T06:51:16.257Z,0.10
2022-12-16T06:54:07.961Z,0.10
2022-12-16T06:56:58.305Z,0.00
2022-12-16T06:59:48.693Z,0.00
2022-12-16T07:02:39.072Z,0.00
2022-12-16T07:05:29.448Z,-0.10
2022-12-16T07:08:19.739Z,-0.20
2022-12-16T07:11:16.627Z,-0.20
2022-12-16T07:14:06.912Z,-0.20
2022-12-16T07:16:57.220Z,-0.20
2022-12-16T07:19:47.231Z,-0.30
2022-12-16T07:22:37.577Z,-0.30
2022-12-16T07:25:38.228Z,-0.30
2022-12-16T07:28:29.762Z,-0.30
2022-12-16T07:31:20.126Z,-0.30
2022-12-16T07:34:10.301Z,-0.30
2022-12-16T07:37:00.736Z,-0.20
2022-12-16T07:39:54.779Z,-0.20
2022-12-16T07:42:45.431Z,-0.20
2022-12-16T07:45:41.717Z,-0.10
2022-12-16T07:48:35.220Z,-0.10
2022-12-16T07:51:25.268Z,-0.10
2022-12-16T07:54:15.662Z,-0.10
2022-12-16T07:57:05.840Z,-0.10
2022-12-16T07:59:55.830Z,0.00
2022-12-16T08:02:47.514Z,0.00
2022-12-16T08:05:37.840Z,0.00
2022-12-16T08:08:28.136Z,0.00
2022-12-16T08:11:18.207Z,-0.10
2022-12-16T08:14:08.718Z,-0.10
2022-12-16T08:16:59.264Z,-0.10
2022-12-16T08:19:50.925Z,-0.10
2022-12-16T08:22:41.363Z,-0.10
2022-12-16T08:25:31.360Z,0.00
2022-12-16T08:28:21.628Z,0.00
2022-12-16T08:31:11.810Z,0.00
2022-12-16T08:34:01.898Z,0.10
2022-12-16T08:36:53.481Z,0.10
2022-12-16T08:39:44.677Z,0.10
2022-12-16T08:42:34.865Z,0.10
2022-12-16T08:45:25.608Z,0.10
2022-12-16T08:48:15.907Z,0.20
2022-12-16T08:51:06.501Z,0.20
2022-12-16T08:53:58.087Z,0.20
2022-12-16T08:56:48.443Z,0.20
2022-12-16T08:59:38.418Z,0.30
2022-12-16T09:02:28.976Z,0.30
2022-12-16T09:05:19.182Z,0.30
2022-12-16T09:08:09.595Z,0.30
2022-12-16T09:11:01.159Z,0.40
2022-12-16T09:13:56.072Z,0.40
2022-12-16T09:16:46.134Z,0.40
2022-12-16T09:19:36.485Z,0.40
2022-12-16T09:22:26.742Z,0.40
2022-12-16T09:25:16.789Z,0.40
2022-12-16T09:28:08.825Z,0.50
2022-12-16T09:30:59.076Z,0.50
2022-12-16T09:33:49.182Z,0.60
2022-12-16T09:36:39.278Z,0.60
2022-12-16T09:39:29.397Z,0.60
2022-12-16T09:42:22.314Z,0.60
2022-12-16T09:45:18.554Z,0.60
2022-12-16T09:48:13.060Z,0.60
2022-12-16T09:51:04.250Z,0.60
2022-12-16T09:53:55.537Z,0.60
2022-12-16T09:56:48.276Z,0.60
2022-12-16T09:59:40.316Z,0.60
2022-12-16T10:02:33.642Z,0.70
2022-12-16T10:05:28.451Z,0.60
2022-12-16T10:08:23.674Z,0.70
2022-12-16T10:11:17.789Z,0.70
2022-12-16T10:14:17.862Z,0.80
2022-12-16T10:17:15.735Z,0.90
2022-12-16T10:20:17.159Z,0.90
2022-12-16T10:23:09.940Z,0.90
2022-12-16T10:26:02.985Z,0.90
2022-12-16T10:29:01.337Z,1.00
2022-12-16T10:31:52.342Z,1.00
2022-12-16T10:34:45.856Z,1.10
2022-12-16T10:37:40.549Z,1.10
2022-12-16T10:40:33.386Z,1.10
2022-12-16T10:43:25.610Z,1.20
2022-12-16T10:46:16.841Z,1.20
2022-12-16T10:49:07.288Z,1.20
2022-12-16T10:51:57.288Z,1.20
2022-12-16T10:54:51.847Z,1.30
2022-12-16T10:57:50.452Z,1.30
2022-12-16T11:00:59.200Z,1.30
2022-12-16T11:03:50.430Z,1.40
2022-12-16T11:06:41.426Z,1.40
2022-12-16T11:09:39.800Z,1.50
2022-12-16T11:12:42.594Z,1.60
2022-12-16T11:15:42.192Z,1.60
2022-12-16T11:18:33.240Z,1.60
2022-12-16T11:21:41.582Z,1.70
2022-12-16T11:24:32.985Z,1.80
2022-12-16T11:27:24.129Z,1.80
2022-12-16T11:30:16.245Z,1.90
2022-12-16T11:33:07.488Z,2.00
2022-12-16T11:35:59.976Z,2.10
2022-12-16T11:38:54.723Z,2.10
2022-12-16T11:41:55.266Z,2.20
2022-12-16T11:44:48.377Z,2.20
2022-12-16T11:47:41.803Z,2.30
2022-12-16T11:50:33.722Z,2.30
2022-12-16T11:53:25.512Z,2.40
2022-12-16T11:56:16.727Z,2.50
2022-12-16T11:59:08.672Z,2.50
2022-12-16T12:02:04.334Z,2.60
2022-12-16T12:04:56.016Z,2.70
2022-12-16T12:07:52.655Z,2.80
2022-12-16T12:11:03.413Z,2.90
2022-12-16T12:14:01.002Z,3.00
2022-12-16T12:16:55.617Z,3.10
2022-12-16T12:19:51.949Z,3.20
2022-12-16T12:22:51.183Z,3.40
2022-12-16T12:25:43.898Z,3.50
2022-12-16T12:28:39.608Z,3.70
2022-12-16T12:31:36.731Z,3.80
2022-12-16T12:34:32.220Z,3.90
2022-12-16T12:37:25.531Z,4.00
2022-12-16T12:40:20.659Z,4.00
2022-12-16T12:43:13.448Z,4.10
2022-12-16T12:46:09.105Z,4.10
2022-12-16T12:49:02.929Z,4.10
2022-12-16T12:51:56.699Z,4.00
2022-12-16T12:54:51.615Z,3.90
2022-12-16T12:57:45.364Z,3.70
2022-12-16T13:00:36.931Z,3.50
2022-12-16T13:03:32.004Z,3.30
2022-12-16T13:06:22.966Z,3.20
2022-12-16T13:09:14.258Z,3.00
2022-12-16T13:12:23.398Z,2.80
2022-12-16T13:15:20.827Z,2.60
2022-12-16T13:18:30.165Z,2.60
2022-12-16T13:21:20.107Z,2.50
2022-12-16T13:24:10.436Z,2.40
2022-12-16T13:27:17.752Z,2.40
2022-12-16T13:30:20.169Z,2.30
2022-12-16T13:33:13.006Z,2.30
2022-12-16T13:36:11.022Z,2.30
2022-12-16T13:39:05.081Z,2.30
2022-12-16T13:42:09.487Z,2.30
2022-12-16T13:45:16.319Z,2.40
2022-12-16T13:48:27.549Z,2.40
2022-12-16T13:51:19.436Z,2.50
2022-12-16T13:54:11.859Z,2.50
2022-12-16T13:57:04.591Z,2.50
2022-12-16T13:59:56.085Z,2.50
2022-12-16T14:03:11.675Z,2.50
2022-12-16T14:06:02.167Z,2.50
2022-12-16T14:08:55.475Z,2.50
2022-12-16T14:11:50.894Z,2.40
2022-12-16T14:14:43.298Z,2.40
2022-12-16T14:17:36.926Z,2.30
2022-12-16T14:20:32.117Z,2.20
2022-12-16T14:23:54.493Z,2.20
2022-12-16T14:26:36.728Z,2.20
2022-12-16T14:29:33.410Z,2.20
2022-12-16T14:32:36.761Z,2.20
2022-12-16T14:35:31.004Z,2.20
2022-12-16T14:38:40.039Z,2.20
2022-12-16T14:41:31.137Z,2.10
2022-12-16T14:44:24.022Z,2.10
2022-12-16T14:47:14.026Z,2.00
2022-12-16T14:50:08.011Z,2.00
2022-12-16T14:52:58.317Z,1.90
2022-12-16T14:55:49.391Z,1.90
2022-12-16T14:58:40.381Z,1.80
2022-12-16T15:01:33.889Z,1.80
2022-12-16T15:04:27.132Z,1.80
2022-12-16T15:07:17.238Z,1.70
2022-12-16T15:10:10.081Z,1.60
2022-12-16T15:13:01.732Z,1.60
2022-12-16T15:15:53.690Z,1.50
2022-12-16T15:18:48.625Z,1.50
2022-12-16T15:21:38.758Z,1.50
2022-12-16T15:24:29.671Z,1.40
2022-12-16T15:27:32.953Z,1.40
2022-12-16T15:30:38.238Z,1.30
2022-12-16T15:33:34.214Z,1.30
2022-12-16T15:36:42.235Z,1.30
2022-12-16T15:39:40.113Z,1.20
2022-12-16T15:42:37.918Z,1.10
2022-12-16T15:45:35.552Z,1.10
2022-12-16T15:48:30.383Z,1.10
2022-12-16T15:51:20.446Z,1.00
2022-12-16T15:54:21.283Z,1.00
2022-12-16T15:57:11.770Z,1.00
2022-12-16T16:00:12.636Z,0.90
2022-12-16T16:03:20.219Z,0.90
2022-12-16T16:06:10.682Z,0.90
2022-12-16T16:09:00.901Z,0.90
2022-12-16T16:11:52.125Z,1.00
2022-12-16T16:14:42.478Z,0.90
2022-12-16T16:17:49.287Z,1.00
2022-12-16T16:20:39.426Z,1.00
2022-12-16T16:23:29.688Z,1.00
2022-12-16T16:26:19.702Z,1.00
2022-12-16T16:29:11.329Z,1.00
2022-12-16T16:32:04.358Z,0.90
2022-12-16T16:34:54.829Z,0.90
2022-12-16T16:37:45.035Z,0.90
2022-12-16T16:40:36.781Z,0.80
2022-12-16T16:43:27.171Z,0.80
2022-12-16T16:46:18.999Z,0.80
2022-12-16T16:49:09.305Z,0.80
2022-12-16T16:51:59.256Z,0.80
2022-12-16T16:54:49.518Z,0.80
2022-12-16T16:57:40.121Z,0.80
2022-12-16T17:00:30.850Z,0.80
2022-12-16T17:03:23.022Z,0.80
2022-12-16T17:06:13.208Z,1.10
2022-12-16T17:09:03.528Z,1.40
2022-12-16T17:11:53.732Z,1.80
2022-12-16T17:14:44.123Z,2.10
2022-12-16T17:17:34.339Z,2.40
2022-12-16T17:20:27.338Z,2.70
2022-12-16T17:23:17.565Z,2.90
2022-12-16T17:26:07.611Z,3.20
2022-12-16T17:28:57.919Z,3.30
2022-12-16T17:31:49.684Z,3.50
2022-12-16T17:34:39.769Z,3.60
2022-12-16T17:37:31.033Z,3.70
2022-12-16T17:40:21.225Z,3.80
2022-12-16T17:43:11.628Z,3.80
2022-12-16T17:46:02.279Z,4.00
2022-12-16T17:48:52.578Z,4.10
2022-12-16T17:51:42.944Z,4.20
2022-12-16T17:54:34.241Z,4.30
2022-12-16T17:57:24.531Z,4.30
2022-12-16T18:00:14.813Z,4.30
2022-12-16T18:03:05.266Z,4.30
2022-12-16T18:05:55.502Z,4.30
2022-12-16T18:08:45.877Z,4.30
2022-12-16T18:11:38.944Z,4.30
2022-12-16T18:14:29.338Z,4.30
2022-12-16T18:17:19.423Z,4.20
2022-12-16T18:20:09.454Z,4.20
2022-12-16T18:22:59.761Z,4.10
2022-12-16T18:25:52.984Z,4.10
2022-12-16T18:28:44.583Z,4.10
2022-12-16T18:31:34.956Z,4.10
2022-12-16T18:34:25.105Z,4.20
2022-12-16T18:37:15.168Z,4.30
2022-12-16T18:40:05.267Z,4.40
2022-12-16T18:42:55.509Z,4.50
2022-12-16T18:45:46.847Z,4.50
2022-12-16T18:48:37.024Z,4.40
2022-12-16T18:51:27.530Z,4.50
2022-12-16T18:54:17.823Z,4.50
2022-12-16T18:57:07.964Z,4.50
2022-12-16T18:59:58.422Z,4.60
2022-12-16T19:02:49.963Z,4.50
2022-12-16T19:06:00.337Z,4.50
2022-12-16T19:08:50.711Z,4.40
2022-12-16T19:11:40.842Z,4.30
2022-12-16T19:14:30.876Z,4.30
2022-12-16T19:17:20.843Z,4.30
2022-12-16T19:20:12.608Z,4.30
2022-12-16T19:23:03.014Z,4.30
2022-12-16T19:25:53.466Z,4.30
2022-12-16T19:28:43.949Z,4.30
2022-12-16T19:31:34.091Z,4.20
2022-12-16T19:34:24.467Z,4.10
2022-12-16T19:37:16.088Z,4.10
2022-12-16T19:40:07.046Z,4.10
2022-12-16T19:42:57.339Z,4.10
2022-12-16T19:45:47.538Z,4.20
2022-12-16T19:48:37.898Z,4.10
2022-12-16T19:51:28.076Z,4.10
2022-12-16T19:54:19.809Z,4.10
2022-12-16T19:57:09.904Z,4.10
2022-12-16T20:00:00.227Z,4.10
2022-12-16T20:02:51.003Z,4.10
2022-12-16T20:05:41.841Z,4.00
2022-12-16T20:08:32.235Z,3.90
2022-12-16T20:11:25.025Z,3.90
2022-12-16T20:14:15.283Z,3.90
2022-12-16T20:17:05.425Z,4.00
2022-12-16T20:19:56.134Z,4.00
2022-12-16T20:22:46.788Z,4.00
2022-12-16T20:25:37.175Z,4.00
2022-12-16T20:28:29.218Z,4.10
2022-12-16T20:31:19.964Z,4.10
2022-12-16T20:34:11.513Z,4.10
2022-12-16T20:37:01.850Z,4.10
2022-12-16T20:39:56.799Z,4.10
2022-12-16T20:42:47.677Z,4.10
2022-12-16T20:45:39.073Z,4.10
2022-12-16T20:48:31.895Z,4.10
2022-12-16T20:51:26.562Z,4.00
2022-12-16T20:54:17.067Z,4.00
2022-12-16T20:57:12.581Z,3.90
2022-12-16T21:00:03.427Z,3.90
2022-12-16T21:02:54.826Z,3.80
2022-12-16T21:05:46.488Z,3.80
2022-12-16T21:08:36.859Z,3.70
2022-12-16T21:11:27.249Z,3.70
2022-12-16T21:14:17.848Z,3.70
2022-12-16T21:17:08.510Z,3.60
2022-12-16T21:20:00.997Z,3.50
2022-12-16T21:22:51.917Z,3.50
2022-12-16T21:25:43.493Z,3.40
2022-12-16T21:28:33.756Z,3.40
2022-12-16T21:31:23.875Z,3.30
2022-12-16T21:34:14.150Z,3.30
2022-12-16T21:37:05.359Z,3.20
2022-12-16T21:39:56.002Z,3.20
2022-12-16T21:42:46.107Z,3.20
2022-12-16T21:45:36.232Z,3.10
2022-12-16T21:48:29.166Z,3.10
2022-12-16T21:51:19.247Z,3.00
2022-12-16T21:55:13.784Z,3.00
2022-12-16T21:58:04.251Z,2.90
2022-12-16T22:00:58.937Z,2.80
2022-12-16T22:04:02.109Z,2.80
2022-12-16T22:06:52.259Z,2.70
2022-12-16T22:09:42.631Z,2.70
2022-12-16T22:12:34.542Z,2.60
2022-12-16T22:15:25.856Z,2.60
2022-12-16T22:18:15.921Z,2.50
2022-12-16T22:21:14.194Z,2.50
2022-12-16T22:24:04.644Z,2.40
2022-12-16T22:26:56.409Z,2.40
2022-12-16T22:29:48.194Z,2.40
2022-12-16T22:32:38.270Z,2.30
2022-12-16T22:35:28.856Z,2.30
2022-12-16T22:38:19.479Z,2.20
2022-12-16T22:41:13.418Z,2.20
2022-12-16T22:44:04.349Z,2.20
2022-12-16T22:46:56.172Z,2.20
2022-12-16T22:49:46.593Z,2.10
2022-12-16T22:52:36.761Z,2.10
2022-12-16T22:55:27.297Z,2.00
2022-12-16T22:58:17.647Z,2.10
2022-12-16T23:01:07.739Z,2.00
2022-12-16T23:03:59.297Z,2.00
2022-12-16T23:06:49.421Z,1.90
2022-12-16T23:09:39.991Z,1.50
2022-12-16T23:12:29.976Z,1.20
2022-12-16T23:15:20.427Z,0.80
2022-12-16T23:18:10.673Z,0.40
2022-12-16T23:21:04.552Z,0.10
2022-12-16T23:23:56.974Z,-0.20
2022-12-16T23:26:47.686Z,-0.50
2022-12-16T23:29:37.984Z,-0.80
2022-12-16T23:32:28.222Z,-1.10
2022-12-16T23:35:18.740Z,-1.30
2022-12-16T23:38:10.193Z,-1.50
2022-12-16T23:41:00.221Z,-1.60
2022-12-16T23:43:50.449Z,-1.90
2022-12-16T23:46:40.498Z,-2.00
2022-12-16T23:49:31.056Z,-2.20
2022-12-16T23:52:21.218Z,-2.40
2022-12-16T23:55:12.833Z,-2.50
2022-12-16T23:58:03.253Z,-2.60
